SBPS Informações do Aeroporto

Informações da Pista
Pista 10 Comprimento 6562 ft Largura 148 ft
Elevação 0 ft Limite 0 ft Heading 0
Pista 28 Comprimento 6562 ft Largura 148 ft
Elevação 0 ft Limite 0 ft Heading 0
Frequências do Aeroporto
Tipo TWR Nome TWR Frequência 118.2 MHZ
Navaids do Aeroporto
Tipo NDB Nome Porto Seguro Frequência 385 KHZ
Informações meteorológicas do aeroporto e NOTAM
ADDS - METARS form results

(2352 UTC 25 May 2019)
Data provider http://aviationweather.gov/metar/data/
 
METAR text: SBPS 252300Z 04005KT CAVOK 26/22 Q1013
Conditions at: SBPS (PORTO SEGURO , BR) observed 2300 UTC 25 May 2019
Temperature: 26.0°C (79°F)
Dewpoint: 22.0°C (72°F) [RH = 79%]
Pressure (altimeter): 29.91 inches Hg (1013.0 mb)
Winds: from the NE (40 degrees) at 6 MPH (5 knots; 2.6 m/s)
Visibility: 6 or more miles (10+ km)
Ceiling: ceiling and visibility are OK
Clouds: unknown
Weather: no significant weather observed at this time

Forecast for: SBPS (PORTO SEGURO , BR)
Text: TAF SBPS 252200Z 2600/2612 33007KT CAVOK TN21/2607Z TX26/2612Z RMK PE D
Forecast period: 0000 to 1200 UTC 26 May 2019
Forecast type: FROM: standard forecast or significant change
Winds: from the NNW (330 degrees) at 8 MPH (7 knots; 3.6 m/s)
Visibility: 6 or more miles 10+ km)
Ceiling: unknown
Clouds: missing
Weather: PE  (moderate ice pellets)